sensor_id;sensor_type;location;lat;lon;timestamp;pressure;altitude;pressure_sealevel;temperature;humidity
47811;BME280;33575;52.600;7.318;2023-06-04T00:01:17;102093.75;;;14.82;62.71
47811;BME280;33575;52.600;7.318;2023-06-04T00:03:45;102089.56;;;14.75;63.65
47811;BME280;33575;52.600;7.318;2023-06-04T00:06:15;102087.97;;;14.67;64.59
47811;BME280;33575;52.600;7.318;2023-06-04T00:08:45;102088.91;;;14.62;63.80
47811;BME280;33575;52.600;7.318;2023-06-04T00:11:16;102085.62;;;14.63;63.37
47811;BME280;33575;52.600;7.318;2023-06-04T00:13:46;102086.27;;;14.62;64.10
47811;BME280;33575;52.600;7.318;2023-06-04T00:16:17;102093.65;;;14.61;63.75
47811;BME280;33575;52.600;7.318;2023-06-04T00:18:47;102090.35;;;14.60;63.65
47811;BME280;33575;52.600;7.318;2023-06-04T00:21:17;102089.80;;;14.55;64.15
47811;BME280;33575;52.600;7.318;2023-06-04T00:23:48;102090.17;;;14.48;64.38
47811;BME280;33575;52.600;7.318;2023-06-04T00:26:18;102090.00;;;14.42;65.48
47811;BME280;33575;52.600;7.318;2023-06-04T00:28:49;102086.52;;;14.27;66.00
47811;BME280;33575;52.600;7.318;2023-06-04T00:31:19;102087.36;;;14.19;66.57
47811;BME280;33575;52.600;7.318;2023-06-04T00:33:50;102082.33;;;14.08;67.89
47811;BME280;33575;52.600;7.318;2023-06-04T00:36:20;102080.66;;;14.05;66.84
47811;BME280;33575;52.600;7.318;2023-06-04T00:38:50;102081.88;;;14.01;66.57
47811;BME280;33575;52.600;7.318;2023-06-04T00:41:21;102083.56;;;13.99;67.04
47811;BME280;33575;52.600;7.318;2023-06-04T00:43:51;102084.82;;;13.95;67.50
47811;BME280;33575;52.600;7.318;2023-06-04T00:46:23;102083.43;;;13.88;67.67
47811;BME280;33575;52.600;7.318;2023-06-04T00:48:52;102082.72;;;13.86;67.78
47811;BME280;33575;52.600;7.318;2023-06-04T00:51:23;102083.21;;;13.83;68.85
47811;BME280;33575;52.600;7.318;2023-06-04T00:53:53;102084.43;;;13.76;68.25
47811;BME280;33575;52.600;7.318;2023-06-04T00:56:24;102085.40;;;13.69;68.75
47811;BME280;33575;52.600;7.318;2023-06-04T00:58:54;102083.71;;;13.58;69.79
47811;BME280;33575;52.600;7.318;2023-06-04T01:01:31;102085.14;;;13.49;69.07
47811;BME280;33575;52.600;7.318;2023-06-04T01:03:55;102084.97;;;13.44;69.17
47811;BME280;33575;52.600;7.318;2023-06-04T01:06:30;102083.96;;;13.42;68.91
47811;BME280;33575;52.600;7.318;2023-06-04T01:08:58;102087.63;;;13.35;69.68
47811;BME280;33575;52.600;7.318;2023-06-04T01:11:32;102084.59;;;13.29;69.76
47811;BME280;33575;52.600;7.318;2023-06-04T01:13:57;102083.73;;;13.25;70.07
47811;BME280;33575;52.600;7.318;2023-06-04T01:16:32;102081.60;;;13.19;70.88
47811;BME280;33575;52.600;7.318;2023-06-04T01:18:59;102080.26;;;13.11;70.53
47811;BME280;33575;52.600;7.318;2023-06-04T01:21:29;102083.97;;;12.99;70.76
47811;BME280;33575;52.600;7.318;2023-06-04T01:24:00;102086.70;;;12.86;71.78
47811;BME280;33575;52.600;7.318;2023-06-04T01:26:30;102087.88;;;12.76;71.71
47811;BME280;33575;52.600;7.318;2023-06-04T01:29:01;102087.81;;;12.68;71.72
47811;BME280;33575;52.600;7.318;2023-06-04T01:31:31;102088.12;;;12.59;72.11
47811;BME280;33575;52.600;7.318;2023-06-04T01:34:01;102088.73;;;12.55;71.84
47811;BME280;33575;52.600;7.318;2023-06-04T01:36:32;102085.75;;;12.49;72.68
47811;BME280;33575;52.600;7.318;2023-06-04T01:39:02;102082.59;;;12.46;72.13
47811;BME280;33575;52.600;7.318;2023-06-04T01:41:32;102078.53;;;12.48;71.74
47811;BME280;33575;52.600;7.318;2023-06-04T01:44:03;102078.33;;;12.44;72.58
47811;BME280;33575;52.600;7.318;2023-06-04T01:46:33;102078.04;;;12.41;72.57
47811;BME280;33575;52.600;7.318;2023-06-04T01:49:04;102078.28;;;12.39;72.68
47811;BME280;33575;52.600;7.318;2023-06-04T01:51:34;102073.55;;;12.37;73.83
47811;BME280;33575;52.600;7.318;2023-06-04T01:54:05;102075.71;;;12.37;72.46
47811;BME280;33575;52.600;7.318;2023-06-04T01:56:35;102073.71;;;12.36;72.94
47811;BME280;33575;52.600;7.318;2023-06-04T01:59:06;102073.95;;;12.40;72.36
47811;BME280;33575;52.600;7.318;2023-06-04T02:01:36;102077.04;;;12.44;72.20
47811;BME280;33575;52.600;7.318;2023-06-04T02:04:07;102075.82;;;12.39;73.29
47811;BME280;33575;52.600;7.318;2023-06-04T02:06:37;102079.10;;;12.24;74.63
47811;BME280;33575;52.600;7.318;2023-06-04T02:09:08;102082.86;;;12.12;73.94
47811;BME280;33575;52.600;7.318;2023-06-04T02:11:38;102077.64;;;12.01;74.95
47811;BME280;33575;52.600;7.318;2023-06-04T02:14:09;102082.19;;;11.93;75.50
47811;BME280;33575;52.600;7.318;2023-06-04T02:16:40;102083.00;;;11.85;75.78
47811;BME280;33575;52.600;7.318;2023-06-04T02:19:10;102081.80;;;11.77;75.76
47811;BME280;33575;52.600;7.318;2023-06-04T02:21:40;102082.62;;;11.63;76.12
47811;BME280;33575;52.600;7.318;2023-06-04T02:24:11;102081.10;;;11.53;76.32
47811;BME280;33575;52.600;7.318;2023-06-04T02:26:41;102080.49;;;11.47;76.97
47811;BME280;33575;52.600;7.318;2023-06-04T02:29:12;102082.19;;;11.41;77.37
47811;BME280;33575;52.600;7.318;2023-06-04T02:31:42;102080.40;;;11.36;77.65
47811;BME280;33575;52.600;7.318;2023-06-04T02:34:13;102081.12;;;11.33;77.00
47811;BME280;33575;52.600;7.318;2023-06-04T02:36:43;102078.29;;;11.36;76.93
47811;BME280;33575;52.600;7.318;2023-06-04T02:39:14;102083.89;;;11.35;77.71
47811;BME280;33575;52.600;7.318;2023-06-04T02:41:44;102085.11;;;11.29;77.88
47811;BME280;33575;52.600;7.318;2023-06-04T02:44:15;102085.52;;;11.22;78.50
47811;BME280;33575;52.600;7.318;2023-06-04T02:46:45;102085.44;;;11.17;79.44
47811;BME280;33575;52.600;7.318;2023-06-04T02:49:16;102084.76;;;11.08;80.07
47811;BME280;33575;52.600;7.318;2023-06-04T02:51:46;102084.26;;;10.99;79.96
47811;BME280;33575;52.600;7.318;2023-06-04T02:54:17;102085.11;;;10.94;79.99
47811;BME280;33575;52.600;7.318;2023-06-04T02:56:47;102086.83;;;10.90;80.29
47811;BME280;33575;52.600;7.318;2023-06-04T02:59:18;102088.54;;;10.83;81.06
47811;BME280;33575;52.600;7.318;2023-06-04T03:01:49;102089.39;;;10.73;82.11
47811;BME280;33575;52.600;7.318;2023-06-04T03:04:19;102089.27;;;10.62;81.64
47811;BME280;33575;52.600;7.318;2023-06-04T03:06:49;102091.57;;;10.42;84.17
47811;BME280;33575;52.600;7.318;2023-06-04T03:09:20;102092.04;;;10.44;82.62
47811;BME280;33575;52.600;7.318;2023-06-04T03:11:50;102093.77;;;10.39;82.80
47811;BME280;33575;52.600;7.318;2023-06-04T03:14:21;102093.55;;;10.42;83.02
47811;BME280;33575;52.600;7.318;2023-06-04T03:16:51;102093.00;;;10.42;83.62
47811;BME280;33575;52.600;7.318;2023-06-04T03:19:22;102092.26;;;10.31;84.55
47811;BME280;33575;52.600;7.318;2023-06-04T03:21:53;102092.00;;;10.24;84.69
47811;BME280;33575;52.600;7.318;2023-06-04T03:24:23;102090.85;;;10.28;84.90
47811;BME280;33575;52.600;7.318;2023-06-04T03:26:54;102093.98;;;10.34;84.43
47811;BME280;33575;52.600;7.318;2023-06-04T03:29:24;102094.03;;;10.37;84.31
47811;BME280;33575;52.600;7.318;2023-06-04T03:31:55;102087.83;;;10.45;83.20
47811;BME280;33575;52.600;7.318;2023-06-04T03:34:26;102090.12;;;10.48;84.40
47811;BME280;33575;52.600;7.318;2023-06-04T03:36:56;102087.97;;;10.48;84.78
47811;BME280;33575;52.600;7.318;2023-06-04T03:39:27;102088.63;;;10.52;83.55
47811;BME280;33575;52.600;7.318;2023-06-04T03:41:57;102086.33;;;10.58;84.57
47811;BME280;33575;52.600;7.318;2023-06-04T03:44:28;102088.46;;;10.50;85.52
47811;BME280;33575;52.600;7.318;2023-06-04T03:46:58;102090.99;;;10.46;85.47
47811;BME280;33575;52.600;7.318;2023-06-04T03:49:29;102091.60;;;10.46;85.78
47811;BME280;33575;52.600;7.318;2023-06-04T03:51:59;102093.57;;;10.46;84.99
47811;BME280;33575;52.600;7.318;2023-06-04T03:54:30;102093.21;;;10.48;85.03
47811;BME280;33575;52.600;7.318;2023-06-04T03:57:01;102090.79;;;10.48;84.84
47811;BME280;33575;52.600;7.318;2023-06-04T03:59:31;102090.74;;;10.55;84.14
47811;BME280;33575;52.600;7.318;2023-06-04T04:02:02;102087.13;;;10.59;85.42
47811;BME280;33575;52.600;7.318;2023-06-04T04:04:32;102081.81;;;10.67;84.87
47811;BME280;33575;52.600;7.318;2023-06-04T04:07:03;102079.55;;;10.69;85.64
47811;BME280;33575;52.600;7.318;2023-06-04T04:09:34;102079.78;;;10.62;85.50
47811;BME280;33575;52.600;7.318;2023-06-04T04:12:05;102080.90;;;10.62;85.34
47811;BME280;33575;52.600;7.318;2023-06-04T04:14:34;102078.59;;;10.61;85.92
47811;BME280;33575;52.600;7.318;2023-06-04T04:17:05;102075.84;;;10.68;85.02
47811;BME280;33575;52.600;7.318;2023-06-04T04:19:36;102077.51;;;10.66;85.45
47811;BME280;33575;52.600;7.318;2023-06-04T04:22:06;102079.57;;;10.66;85.05
47811;BME280;33575;52.600;7.318;2023-06-04T04:24:37;102079.36;;;10.70;84.78
47811;BME280;33575;52.600;7.318;2023-06-04T04:27:07;102078.87;;;10.72;85.67
47811;BME280;33575;52.600;7.318;2023-06-04T04:29:38;102079.52;;;10.73;85.70
47811;BME280;33575;52.600;7.318;2023-06-04T04:32:08;102080.21;;;10.71;86.57
47811;BME280;33575;52.600;7.318;2023-06-04T04:37:09;102071.59;;;10.61;86.88
47811;BME280;33575;52.600;7.318;2023-06-04T04:39:39;102071.86;;;10.66;86.43
47811;BME280;33575;52.600;7.318;2023-06-04T04:42:10;102069.85;;;10.66;86.99
47811;BME280;33575;52.600;7.318;2023-06-04T04:44:40;102069.45;;;10.68;87.30
47811;BME280;33575;52.600;7.318;2023-06-04T04:47:11;102071.29;;;10.68;87.88
47811;BME280;33575;52.600;7.318;2023-06-04T04:49:42;102073.64;;;10.77;87.00
47811;BME280;33575;52.600;7.318;2023-06-04T04:52:12;102076.06;;;10.86;86.87
47811;BME280;33575;52.600;7.318;2023-06-04T04:54:43;102075.20;;;10.93;86.73
47811;BME280;33575;52.600;7.318;2023-06-04T04:57:15;102076.65;;;11.04;85.31
47811;BME280;33575;52.600;7.318;2023-06-04T04:59:45;102079.35;;;11.18;84.59
47811;BME280;33575;52.600;7.318;2023-06-04T05:02:14;102079.51;;;11.28;85.42
47811;BME280;33575;52.600;7.318;2023-06-04T05:04:44;102082.84;;;11.40;84.80
47811;BME280;33575;52.600;7.318;2023-06-04T05:07:15;102083.72;;;11.48;85.56
47811;BME280;33575;52.600;7.318;2023-06-04T05:09:46;102085.42;;;11.53;85.27
47811;BME280;33575;52.600;7.318;2023-06-04T05:12:16;102087.31;;;11.55;84.86
47811;BME280;33575;52.600;7.318;2023-06-04T05:14:46;102089.75;;;11.44;87.66
47811;BME280;33575;52.600;7.318;2023-06-04T05:17:17;102093.74;;;11.52;86.57
47811;BME280;33575;52.600;7.318;2023-06-04T05:19:47;102093.27;;;11.51;86.99
47811;BME280;33575;52.600;7.318;2023-06-04T05:22:18;102094.62;;;11.47;87.98
47811;BME280;33575;52.600;7.318;2023-06-04T05:24:49;102099.28;;;11.28;88.38
47811;BME280;33575;52.600;7.318;2023-06-04T05:27:19;102097.99;;;11.32;88.28
47811;BME280;33575;52.600;7.318;2023-06-04T05:29:50;102103.68;;;11.31;88.45
47811;BME280;33575;52.600;7.318;2023-06-04T05:32:21;102102.45;;;11.25;88.77
47811;BME280;33575;52.600;7.318;2023-06-04T05:34:51;102106.00;;;11.30;89.03
47811;BME280;33575;52.600;7.318;2023-06-04T05:37:21;102103.87;;;11.42;88.77
47811;BME280;33575;52.600;7.318;2023-06-04T05:39:51;102101.69;;;11.46;88.70
47811;BME280;33575;52.600;7.318;2023-06-04T05:42:22;102098.02;;;11.51;88.04
47811;BME280;33575;52.600;7.318;2023-06-04T05:44:52;102095.24;;;11.58;87.80
47811;BME280;33575;52.600;7.318;2023-06-04T05:47:22;102095.44;;;11.65;87.55
47811;BME280;33575;52.600;7.318;2023-06-04T05:49:53;102094.93;;;11.81;86.55
47811;BME280;33575;52.600;7.318;2023-06-04T05:52:23;102092.56;;;11.95;86.40
47811;BME280;33575;52.600;7.318;2023-06-04T05:54:54;102091.94;;;12.08;85.58
47811;BME280;33575;52.600;7.318;2023-06-04T05:57:24;102092.39;;;12.24;85.24
47811;BME280;33575;52.600;7.318;2023-06-04T05:59:55;102092.35;;;12.37;85.31
47811;BME280;33575;52.600;7.318;2023-06-04T06:02:26;102093.72;;;12.42;84.42
47811;BME280;33575;52.600;7.318;2023-06-04T06:04:56;102097.60;;;12.58;83.36
47811;BME280;33575;52.600;7.318;2023-06-04T06:07:27;102096.61;;;12.64;82.92
47811;BME280;33575;52.600;7.318;2023-06-04T06:09:57;102099.65;;;12.67;82.24
47811;BME280;33575;52.600;7.318;2023-06-04T06:12:28;102103.56;;;12.75;82.89
47811;BME280;33575;52.600;7.318;2023-06-04T06:14:58;102102.59;;;12.81;82.10
47811;BME280;33575;52.600;7.318;2023-06-04T06:17:29;102105.62;;;12.90;82.01
47811;BME280;33575;52.600;7.318;2023-06-04T06:19:59;102109.08;;;12.97;82.14
47811;BME280;33575;52.600;7.318;2023-06-04T06:22:30;102111.47;;;13.07;80.62
47811;BME280;33575;52.600;7.318;2023-06-04T06:25:00;102109.75;;;13.11;80.91
47811;BME280;33575;52.600;7.318;2023-06-04T06:27:31;102107.91;;;13.15;80.99
47811;BME280;33575;52.600;7.318;2023-06-04T06:30:02;102107.66;;;13.36;80.44
47811;BME280;33575;52.600;7.318;2023-06-04T06:32:32;102109.10;;;13.50;79.77
47811;BME280;33575;52.600;7.318;2023-06-04T06:35:03;102112.77;;;13.61;79.24
47811;BME280;33575;52.600;7.318;2023-06-04T06:37:33;102109.44;;;13.69;78.64
47811;BME280;33575;52.600;7.318;2023-06-04T06:40:04;102107.87;;;13.88;78.51
47811;BME280;33575;52.600;7.318;2023-06-04T06:42:34;102108.69;;;13.85;77.30
47811;BME280;33575;52.600;7.318;2023-06-04T06:45:05;102104.42;;;14.04;76.88
47811;BME280;33575;52.600;7.318;2023-06-04T06:47:35;102108.09;;;14.15;76.26
47811;BME280;33575;52.600;7.318;2023-06-04T06:50:06;102108.20;;;14.22;75.67
47811;BME280;33575;52.600;7.318;2023-06-04T06:52:35;102113.04;;;14.29;75.18
47811;BME280;33575;52.600;7.318;2023-06-04T06:55:07;102115.21;;;14.33;74.68
47811;BME280;33575;52.600;7.318;2023-06-04T06:57:36;102121.07;;;14.37;74.53
47811;BME280;33575;52.600;7.318;2023-06-04T07:00:08;102123.83;;;14.54;74.58
47811;BME280;33575;52.600;7.318;2023-06-04T07:02:37;102124.18;;;14.65;74.57
47811;BME280;33575;52.600;7.318;2023-06-04T07:05:08;102126.88;;;14.82;74.09
47811;BME280;33575;52.600;7.318;2023-06-04T07:07:38;102128.02;;;14.96;73.64
47811;BME280;33575;52.600;7.318;2023-06-04T07:10:09;102127.32;;;15.06;72.80
47811;BME280;33575;52.600;7.318;2023-06-04T07:12:39;102123.97;;;14.96;70.55
47811;BME280;33575;52.600;7.318;2023-06-04T07:15:10;102124.99;;;15.21;71.97
47811;BME280;33575;52.600;7.318;2023-06-04T07:17:40;102122.28;;;15.30;71.50
47811;BME280;33575;52.600;7.318;2023-06-04T07:20:10;102119.39;;;15.41;71.30
47811;BME280;33575;52.600;7.318;2023-06-04T07:22:41;102119.73;;;15.53;70.94
47811;BME280;33575;52.600;7.318;2023-06-04T07:25:11;102121.45;;;15.51;70.08
47811;BME280;33575;52.600;7.318;2023-06-04T07:27:41;102122.86;;;15.58;69.37
47811;BME280;33575;52.600;7.318;2023-06-04T07:30:12;102119.52;;;15.61;69.59
47811;BME280;33575;52.600;7.318;2023-06-04T07:32:46;102123.32;;;15.62;69.26
47811;BME280;33575;52.600;7.318;2023-06-04T07:35:13;102122.73;;;15.83;69.04
47811;BME280;33575;52.600;7.318;2023-06-04T07:37:43;102119.94;;;15.96;68.53
47811;BME280;33575;52.600;7.318;2023-06-04T07:40:14;102123.58;;;16.09;69.04
47811;BME280;33575;52.600;7.318;2023-06-04T07:42:45;102124.99;;;16.12;67.56
47811;BME280;33575;52.600;7.318;2023-06-04T07:45:14;102127.94;;;16.24;68.07
47811;BME280;33575;52.600;7.318;2023-06-04T07:47:45;102124.10;;;16.41;67.99
47811;BME280;33575;52.600;7.318;2023-06-04T07:50:15;102124.84;;;16.46;66.85
47811;BME280;33575;52.600;7.318;2023-06-04T07:52:45;102129.09;;;16.40;65.50
47811;BME280;33575;52.600;7.318;2023-06-04T07:55:16;102124.77;;;16.58;65.53
47811;BME280;33575;52.600;7.318;2023-06-04T07:57:46;102126.31;;;16.65;65.94
47811;BME280;33575;52.600;7.318;2023-06-04T08:00:17;102121.47;;;16.74;64.84
47811;BME280;33575;52.600;7.318;2023-06-04T08:02:47;102122.47;;;16.81;64.95
47811;BME280;33575;52.600;7.318;2023-06-04T08:05:17;102127.12;;;16.86;64.42
47811;BME280;33575;52.600;7.318;2023-06-04T08:07:47;102127.61;;;16.88;63.26
47811;BME280;33575;52.600;7.318;2023-06-04T08:10:18;102125.66;;;17.03;64.18
47811;BME280;33575;52.600;7.318;2023-06-04T08:12:48;102126.98;;;17.15;64.83
47811;BME280;33575;52.600;7.318;2023-06-04T08:15:18;102120.98;;;17.26;64.66
47811;BME280;33575;52.600;7.318;2023-06-04T08:17:49;102125.28;;;17.37;64.60
47811;BME280;33575;52.600;7.318;2023-06-04T08:20:19;102122.48;;;17.38;62.71
47811;BME280;33575;52.600;7.318;2023-06-04T08:22:50;102121.95;;;17.29;61.33
47811;BME280;33575;52.600;7.318;2023-06-04T08:25:20;102125.01;;;17.30;62.50
47811;BME280;33575;52.600;7.318;2023-06-04T08:27:50;102128.06;;;17.38;61.83
47811;BME280;33575;52.600;7.318;2023-06-04T08:30:21;102135.08;;;17.47;60.34
47811;BME280;33575;52.600;7.318;2023-06-04T08:32:51;102134.85;;;17.67;60.06
47811;BME280;33575;52.600;7.318;2023-06-04T08:35:21;102138.84;;;17.65;60.37
47811;BME280;33575;52.600;7.318;2023-06-04T08:37:51;102138.40;;;17.76;60.68
47811;BME280;33575;52.600;7.318;2023-06-04T08:40:22;102135.21;;;17.72;59.90
47811;BME280;33575;52.600;7.318;2023-06-04T08:42:55;102138.83;;;17.89;59.15
47811;BME280;33575;52.600;7.318;2023-06-04T08:45:23;102140.37;;;17.83;58.41
47811;BME280;33575;52.600;7.318;2023-06-04T08:47:53;102139.84;;;18.09;60.47
47811;BME280;33575;52.600;7.318;2023-06-04T08:50:24;102140.17;;;17.93;58.27
47811;BME280;33575;52.600;7.318;2023-06-04T08:52:55;102137.71;;;18.06;59.18
47811;BME280;33575;52.600;7.318;2023-06-04T08:55:24;102139.53;;;18.21;57.52
47811;BME280;33575;52.600;7.318;2023-06-04T08:57:54;102134.35;;;18.30;56.76
47811;BME280;33575;52.600;7.318;2023-06-04T09:00:24;102134.63;;;18.31;56.13
47811;BME280;33575;52.600;7.318;2023-06-04T09:02:55;102136.36;;;18.36;56.66
47811;BME280;33575;52.600;7.318;2023-06-04T09:05:25;102135.54;;;18.48;55.98
47811;BME280;33575;52.600;7.318;2023-06-04T09:07:56;102134.71;;;18.60;56.38
47811;BME280;33575;52.600;7.318;2023-06-04T09:10:26;102136.96;;;18.65;55.11
47811;BME280;33575;52.600;7.318;2023-06-04T09:12:57;102132.72;;;18.66;54.73
47811;BME280;33575;52.600;7.318;2023-06-04T09:15:26;102133.20;;;18.70;54.28
47811;BME280;33575;52.600;7.318;2023-06-04T09:17:56;102135.00;;;18.70;53.91
47811;BME280;33575;52.600;7.318;2023-06-04T09:20:27;102131.56;;;18.89;53.64
47811;BME280;33575;52.600;7.318;2023-06-04T09:22:58;102133.32;;;19.15;55.11
47811;BME280;33575;52.600;7.318;2023-06-04T09:25:27;102135.34;;;19.30;54.57
47811;BME280;33575;52.600;7.318;2023-06-04T09:28:05;102134.99;;;19.50;54.25
47811;BME280;33575;52.600;7.318;2023-06-04T09:30:28;102133.21;;;19.61;53.46
47811;BME280;33575;52.600;7.318;2023-06-04T09:33:06;102139.03;;;19.55;51.40
47811;BME280;33575;52.600;7.318;2023-06-04T09:35:28;102136.96;;;19.38;51.94
47811;BME280;33575;52.600;7.318;2023-06-04T09:37:59;102137.29;;;19.34;51.87
47811;BME280;33575;52.600;7.318;2023-06-04T09:40:35;102136.69;;;19.42;50.83
47811;BME280;33575;52.600;7.318;2023-06-04T09:42:59;102138.47;;;19.61;50.56
47811;BME280;33575;52.600;7.318;2023-06-04T09:45:31;102130.78;;;19.77;49.59
47811;BME280;33575;52.600;7.318;2023-06-04T09:48:01;102132.01;;;19.81;49.77
47811;BME280;33575;52.600;7.318;2023-06-04T09:50:32;102135.22;;;19.83;48.22
47811;BME280;33575;52.600;7.318;2023-06-04T09:53:12;102127.79;;;19.94;48.34
47811;BME280;33575;52.600;7.318;2023-06-04T09:55:31;102131.10;;;20.01;49.49
47811;BME280;33575;52.600;7.318;2023-06-04T09:58:01;102132.59;;;20.10;49.38
47811;BME280;33575;52.600;7.318;2023-06-04T10:00:31;102128.93;;;20.39;53.33
47811;BME280;33575;52.600;7.318;2023-06-04T10:03:02;102134.00;;;20.39;47.34
47811;BME280;33575;52.600;7.318;2023-06-04T10:05:32;102134.59;;;20.51;47.14
47811;BME280;33575;52.600;7.318;2023-06-04T10:08:03;102130.66;;;20.72;50.34
47811;BME280;33575;52.600;7.318;2023-06-04T10:10:35;102129.85;;;20.93;48.92
47811;BME280;33575;52.600;7.318;2023-06-04T10:13:05;102129.31;;;21.19;48.02
47811;BME280;33575;52.600;7.318;2023-06-04T10:15:35;102123.86;;;21.45;50.05
47811;BME280;33575;52.600;7.318;2023-06-04T10:18:03;102125.47;;;21.66;49.16
47811;BME280;33575;52.600;7.318;2023-06-04T10:20:34;102126.66;;;21.84;49.53
47811;BME280;33575;52.600;7.318;2023-06-04T10:23:04;102123.39;;;21.93;44.91
47811;BME280;33575;52.600;7.318;2023-06-04T10:25:35;102125.91;;;21.92;45.51
47811;BME280;33575;52.600;7.318;2023-06-04T10:28:04;102123.15;;;21.94;44.61
47811;BME280;33575;52.600;7.318;2023-06-04T10:30:35;102131.07;;;21.84;43.63
47811;BME280;33575;52.600;7.318;2023-06-04T10:33:05;102125.27;;;21.91;44.27
47811;BME280;33575;52.600;7.318;2023-06-04T10:35:36;102121.71;;;21.99;44.69
47811;BME280;33575;52.600;7.318;2023-06-04T10:38:08;102122.46;;;22.17;47.60
47811;BME280;33575;52.600;7.318;2023-06-04T10:40:36;102121.69;;;22.37;44.57
47811;BME280;33575;52.600;7.318;2023-06-04T10:43:07;102123.32;;;22.57;46.53
47811;BME280;33575;52.600;7.318;2023-06-04T10:45:37;102122.73;;;22.71;46.41
47811;BME280;33575;52.600;7.318;2023-06-04T10:48:08;102124.72;;;22.75;43.06
47811;BME280;33575;52.600;7.318;2023-06-04T10:53:07;102121.58;;;22.52;43.91
47811;BME280;33575;52.600;7.318;2023-06-04T10:55:43;102120.36;;;22.46;43.89
47811;BME280;33575;52.600;7.318;2023-06-04T10:58:07;102116.89;;;22.58;44.88
47811;BME280;33575;52.600;7.318;2023-06-04T11:00:39;102119.47;;;22.43;44.01
47811;BME280;33575;52.600;7.318;2023-06-04T11:03:11;102113.14;;;22.38;43.26
47811;BME280;33575;52.600;7.318;2023-06-04T11:05:39;102114.86;;;22.50;41.69
47811;BME280;33575;52.600;7.318;2023-06-04T11:08:09;102115.57;;;22.40;43.39
47811;BME280;33575;52.600;7.318;2023-06-04T11:10:40;102112.03;;;22.56;43.23
47811;BME280;33575;52.600;7.318;2023-06-04T11:13:09;102106.01;;;22.67;43.49
47811;BME280;33575;52.600;7.318;2023-06-04T11:15:42;102104.27;;;22.65;42.82
47811;BME280;33575;52.600;7.318;2023-06-04T11:18:14;102101.62;;;22.79;42.54
47811;BME280;33575;52.600;7.318;2023-06-04T11:20:39;102097.00;;;22.90;43.68
47811;BME280;33575;52.600;7.318;2023-06-04T11:23:12;102097.39;;;23.06;44.55
47811;BME280;33575;52.600;7.318;2023-06-04T11:25:40;102097.56;;;22.99;42.52
47811;BME280;33575;52.600;7.318;2023-06-04T11:28:15;102090.34;;;23.15;43.36
47811;BME280;33575;52.600;7.318;2023-06-04T11:30:40;102089.54;;;22.98;41.67
47811;BME280;33575;52.600;7.318;2023-06-04T11:33:10;102086.69;;;23.24;43.63
47811;BME280;33575;52.600;7.318;2023-06-04T11:35:41;102089.28;;;23.26;43.60
47811;BME280;33575;52.600;7.318;2023-06-04T11:38:11;102092.52;;;23.23;41.38
47811;BME280;33575;52.600;7.318;2023-06-04T11:40:40;102083.76;;;23.15;40.82
47811;BME280;33575;52.600;7.318;2023-06-04T11:43:11;102085.04;;;23.14;41.94
47811;BME280;33575;52.600;7.318;2023-06-04T11:45:41;102093.52;;;23.11;42.43
47811;BME280;33575;52.600;7.318;2023-06-04T11:48:11;102084.18;;;23.50;43.53
47811;BME280;33575;52.600;7.318;2023-06-04T11:50:42;102085.25;;;23.67;43.30
47811;BME280;33575;52.600;7.318;2023-06-04T11:53:12;102084.33;;;23.55;41.20
47811;BME280;33575;52.600;7.318;2023-06-04T11:55:42;102080.06;;;23.53;41.65
47811;BME280;33575;52.600;7.318;2023-06-04T11:58:13;102076.43;;;23.33;42.72
47811;BME280;33575;52.600;7.318;2023-06-04T12:00:42;102076.26;;;23.05;42.33
47811;BME280;33575;52.600;7.318;2023-06-04T12:03:12;102076.87;;;23.03;43.08
47811;BME280;33575;52.600;7.318;2023-06-04T12:05:43;102081.69;;;22.86;42.33
47811;BME280;33575;52.600;7.318;2023-06-04T12:08:13;102075.57;;;22.86;41.35
47811;BME280;33575;52.600;7.318;2023-06-04T12:10:43;102073.51;;;22.76;41.55
47811;BME280;33575;52.600;7.318;2023-06-04T12:13:14;102073.48;;;22.79;42.43
47811;BME280;33575;52.600;7.318;2023-06-04T12:15:43;102069.56;;;22.90;42.00
47811;BME280;33575;52.600;7.318;2023-06-04T12:18:23;102068.46;;;23.00;42.52
47811;BME280;33575;52.600;7.318;2023-06-04T12:20:43;102066.54;;;23.07;43.21
47811;BME280;33575;52.600;7.318;2023-06-04T12:23:19;102070.71;;;22.52;43.44
47811;BME280;33575;52.600;7.318;2023-06-04T12:25:50;102070.76;;;22.63;43.68
47811;BME280;33575;52.600;7.318;2023-06-04T12:28:17;102067.76;;;22.31;42.92
47811;BME280;33575;52.600;7.318;2023-06-04T12:30:44;102059.87;;;22.40;43.51
47811;BME280;33575;52.600;7.318;2023-06-04T12:33:14;102061.62;;;22.21;43.39
47811;BME280;33575;52.600;7.318;2023-06-04T12:35:44;102057.87;;;22.29;44.60
47811;BME280;33575;52.600;7.318;2023-06-04T12:38:15;102058.52;;;22.33;43.63
47811;BME280;33575;52.600;7.318;2023-06-04T12:40:45;102057.25;;;22.37;43.67
47811;BME280;33575;52.600;7.318;2023-06-04T12:43:15;102058.70;;;22.50;42.94
47811;BME280;33575;52.600;7.318;2023-06-04T12:45:46;102053.02;;;22.63;42.98
47811;BME280;33575;52.600;7.318;2023-06-04T12:48:16;102057.49;;;22.54;42.56
47811;BME280;33575;52.600;7.318;2023-06-04T12:50:46;102052.11;;;22.63;42.55
47811;BME280;33575;52.600;7.318;2023-06-04T12:53:16;102048.50;;;22.82;42.41
47811;BME280;33575;52.600;7.318;2023-06-04T12:55:46;102044.03;;;23.06;43.60
47811;BME280;33575;52.600;7.318;2023-06-04T12:58:16;102046.75;;;23.09;42.90
47811;BME280;33575;52.600;7.318;2023-06-04T13:00:46;102046.31;;;22.90;43.81
47811;BME280;33575;52.600;7.318;2023-06-04T13:03:17;102057.16;;;22.72;43.69
47811;BME280;33575;52.600;7.318;2023-06-04T13:05:47;102057.28;;;22.84;42.83
47811;BME280;33575;52.600;7.318;2023-06-04T13:08:17;102049.86;;;22.85;42.12
47811;BME280;33575;52.600;7.318;2023-06-04T13:10:47;102042.29;;;22.97;43.02